Time;durP1;ratioP1;P1;durP2;ratioP2;P2;SDS_P1;SDS_P2;PMS_P1;PMS_P2;Temp;Humidity;BMP_temperature;BMP_pressure;BME280_temperature;BME280_humidity;BME280_pressure;Samples;Min_cycle;Max_cycle;Signal;HPM_P1;HPM_P2
2021/09/10 00:00:42;;;;;;;4.72;3.58;;;;;;;23.99;63.15;100396.22;5051856;28;20028;-63
2021/09/10 00:03:07;;;;;;;5.82;3.40;;;;;;;23.99;62.86;100404.25;5055975;28;20032;-64
2021/09/10 00:05:33;;;;;;;4.65;3.70;;;;;;;23.99;62.88;100398.88;5081969;28;20045;-63
2021/09/10 00:07:58;;;;;;;4.45;3.55;;;;;;;24.00;63.13;100411.22;5090262;28;20051;-63
2021/09/10 00:10:24;;;;;;;5.22;3.70;;;;;;;23.99;63.04;100393.53;5090364;28;20442;-63
2021/09/10 00:12:49;;;;;;;4.07;3.42;;;;;;;23.99;63.13;100398.88;5059518;28;20055;-63
2021/09/10 00:15:14;;;;;;;4.88;3.72;;;;;;;23.98;63.01;100395.34;5053019;28;20444;-63
2021/09/10 00:17:40;;;;;;;4.97;3.42;;;;;;;23.99;62.94;100396.22;5051575;28;20102;-63
2021/09/10 00:20:06;;;;;;;5.80;3.63;;;;;;;24.00;63.11;100398.66;5071356;28;20031;-63
2021/09/10 00:22:31;;;;;;;5.13;3.58;;;;;;;24.00;63.26;100392.47;5089466;28;20046;-63
2021/09/10 00:24:57;;;;;;;5.20;3.40;;;;;;;23.99;63.25;100394.34;5048429;28;20387;-63
2021/09/10 00:27:22;;;;;;;4.68;3.83;;;;;;;23.99;62.89;100393.53;5077973;28;20039;-63
2021/09/10 00:29:48;;;;;;;5.10;4.00;;;;;;;23.99;63.14;100388.97;5089823;28;20040;-63
2021/09/10 00:32:14;;;;;;;4.57;3.58;;;;;;;24.00;63.18;100393.28;5089969;28;20437;-63
2021/09/10 00:34:39;;;;;;;4.60;3.72;;;;;;;24.01;63.07;100394.09;5087144;28;20108;-64
2021/09/10 00:37:05;;;;;;;5.22;3.75;;;;;;;24.00;63.27;100401.31;5076908;28;20107;-63
2021/09/10 00:39:30;;;;;;;4.95;3.58;;;;;;;23.99;63.22;100393.53;5067949;28;20054;-63
2021/09/10 00:41:56;;;;;;;5.00;3.88;;;;;;;23.99;63.26;100396.22;5065525;28;20039;-63
2021/09/10 00:44:21;;;;;;;4.75;3.65;;;;;;;23.99;63.39;100404.25;5054818;28;20605;-63
2021/09/10 00:46:47;;;;;;;4.75;3.53;;;;;;;24.00;63.20;100409.38;5075503;28;20783;-63
2021/09/10 00:49:12;;;;;;;4.70;3.60;;;;;;;24.00;63.00;100412.03;5066732;28;20174;-63
2021/09/10 00:51:40;;;;;;;6.00;3.90;;;;;;;24.00;63.28;100405.88;5067033;28;20097;-63
2021/09/10 00:54:06;;;;;;;5.20;3.83;;;;;;;23.99;63.22;100410.41;5090308;28;20063;-63
2021/09/10 00:56:31;;;;;;;4.97;3.78;;;;;;;24.00;63.30;100406.69;5070355;28;20066;-63
2021/09/10 00:59:00;;;;;;;5.10;3.47;;;;;;;24.00;63.50;100408.56;5060601;28;20036;-63
2021/09/10 01:01:26;;;;;;;6.00;4.30;;;;;;;23.99;63.28;100412.28;5087579;28;20125;-63
2021/09/10 01:03:51;;;;;;;5.45;3.72;;;;;;;23.99;63.31;100413.09;5060176;28;20029;-62
2021/09/10 01:06:18;;;;;;;6.15;4.18;;;;;;;24.00;63.34;100408.56;5069841;28;20501;-65
2021/09/10 01:08:45;;;;;;;4.75;3.80;;;;;;;24.00;63.44;100416.59;5059446;28;20131;-63
2021/09/10 01:11:11;;;;;;;5.15;3.92;;;;;;;24.00;63.32;100404.00;5071150;28;20028;-63
2021/09/10 01:13:38;;;;;;;5.80;3.80;;;;;;;24.00;63.28;100406.69;5070076;28;20883;-62
2021/09/10 01:16:04;;;;;;;4.85;3.70;;;;;;;24.00;63.26;100406.69;5069598;28;20110;-63
2021/09/10 01:18:30;;;;;;;5.47;4.20;;;;;;;24.00;63.38;100409.38;5089027;28;20062;-63
2021/09/10 01:20:55;;;;;;;4.82;3.65;;;;;;;24.01;63.22;100402.94;5089190;28;20409;-63
2021/09/10 01:23:20;;;;;;;5.53;4.30;;;;;;;24.01;63.47;100412.84;5088866;28;20425;-63
2021/09/10 01:25:46;;;;;;;4.45;3.55;;;;;;;24.00;63.36;100411.22;5075606;28;20049;-63
2021/09/10 01:28:12;;;;;;;4.90;3.75;;;;;;;24.00;63.25;100409.38;5057412;28;20045;-63
2021/09/10 01:30:38;;;;;;;4.72;3.67;;;;;;;24.01;63.26;100412.84;5063547;28;20564;-63
2021/09/10 01:33:07;;;;;;;5.13;3.92;;;;;;;24.02;63.38;100406.44;5048412;28;20106;-62
2021/09/10 01:35:33;;;;;;;5.50;3.70;;;;;;;24.00;63.26;100404.00;5088678;28;20089;-64
2021/09/10 01:37:59;;;;;;;6.40;4.10;;;;;;;24.01;63.21;100407.50;5088458;28;20493;-63
2021/09/10 01:40:25;;;;;;;4.75;3.75;;;;;;;24.01;63.21;100412.84;5050761;28;20154;-63
2021/09/10 01:42:51;;;;;;;5.05;3.72;;;;;;;24.01;63.24;100415.53;5077610;28;20032;-63
2021/09/10 01:45:19;;;;;;;4.78;3.80;;;;;;;24.01;63.27;100412.84;5070465;28;20046;-63
2021/09/10 01:47:44;;;;;;;5.07;3.72;;;;;;;24.00;63.15;100417.41;5061188;28;20113;-63
2021/09/10 01:50:14;;;;;;;6.32;4.13;;;;;;;24.01;63.51;100420.91;5088078;28;20447;-63
2021/09/10 01:52:40;;;;;;;5.88;4.22;;;;;;;23.99;63.35;100420.31;5082351;28;20111;-63
2021/09/10 01:55:07;;;;;;;4.43;3.75;;;;;;;24.00;63.41;100422.75;5080050;28;20535;-63
2021/09/10 01:57:34;;;;;;;5.80;4.15;;;;;;;24.00;63.13;100417.41;5071111;28;20103;-63
2021/09/10 01:59:59;;;;;;;4.80;3.95;;;;;;;24.00;63.28;100414.72;5066735;28;20033;-63
2021/09/10 02:02:25;;;;;;;4.00;3.28;;;;;;;24.00;63.17;100420.09;5067628;28;20071;-63
2021/09/10 02:04:50;;;;;;;4.65;4.10;;;;;;;23.99;63.34;100418.44;5063192;28;20079;-63
2021/09/10 02:07:16;;;;;;;5.05;3.80;;;;;;;24.01;63.62;100423.56;5063264;28;20044;-63
2021/09/10 02:09:41;;;;;;;4.95;4.03;;;;;;;23.99;63.19;100417.63;5068177;28;20049;-63
2021/09/10 02:12:07;;;;;;;5.38;4.10;;;;;;;23.99;63.19;100423.81;5068273;28;20048;-63
2021/09/10 02:14:34;;;;;;;5.05;4.05;;;;;;;24.01;63.13;100423.56;5065730;28;20044;-63
2021/09/10 02:16:59;;;;;;;4.72;3.90;;;;;;;24.00;63.15;100413.91;5062061;28;20056;-63
2021/09/10 02:19:25;;;;;;;6.07;3.97;;;;;;;24.01;63.19;100423.56;5067788;28;20178;-63
2021/09/10 02:21:51;;;;;;;4.65;3.72;;;;;;;24.00;63.48;100419.28;5066247;28;20036;-62
2021/09/10 02:24:17;;;;;;;5.18;3.92;;;;;;;23.99;63.30;100410.41;5066709;28;20040;-62
2021/09/10 02:26:42;;;;;;;5.05;4.07;;;;;;;23.99;63.33;100412.28;5061469;28;20075;-62
2021/09/10 02:29:08;;;;;;;4.78;4.07;;;;;;;24.00;63.31;100416.59;5066144;28;20036;-62
2021/09/10 02:31:33;;;;;;;4.80;4.00;;;;;;;23.99;63.28;100423.81;5066085;28;20451;-62
2021/09/10 02:33:59;;;;;;;5.85;4.50;;;;;;;23.98;63.28;100419.47;5053193;28;20117;-62
2021/09/10 02:36:24;;;;;;;4.88;3.83;;;;;;;23.99;63.43;100412.28;5059905;28;20032;-62
2021/09/10 02:38:50;;;;;;;5.20;4.00;;;;;;;23.99;63.38;100418.44;5067608;28;20146;-62
2021/09/10 02:41:15;;;;;;;5.13;3.95;;;;;;;23.98;63.35;100419.47;5067908;28;20106;-65
2021/09/10 02:43:41;;;;;;;5.68;3.90;;;;;;;23.98;63.28;100416.78;5065599;28;20040;-63
2021/09/10 02:46:07;;;;;;;4.80;3.80;;;;;;;24.00;63.40;100424.63;5059705;28;20059;-62
2021/09/10 02:48:32;;;;;;;4.68;3.65;;;;;;;23.99;63.45;100417.63;5069785;28;20046;-62
2021/09/10 02:50:57;;;;;;;4.80;3.78;;;;;;;24.00;63.27;100419.28;5075815;28;20040;-63
2021/09/10 02:53:23;;;;;;;4.75;3.90;;;;;;;23.99;63.27;100414.97;5067454;28;20743;-63
2021/09/10 02:55:48;;;;;;;6.28;4.03;;;;;;;23.99;63.29;100417.63;5060779;28;20060;-62
2021/09/10 02:58:14;;;;;;;5.00;4.25;;;;;;;23.99;63.27;100420.31;5063250;28;20502;-62
2021/09/10 03:00:39;;;;;;;5.45;4.15;;;;;;;23.99;63.36;100421.13;5060766;28;20035;-63
2021/09/10 03:03:05;;;;;;;6.30;4.13;;;;;;;24.00;63.14;100419.28;5060161;28;20032;-63
2021/09/10 03:05:31;;;;;;;4.78;3.88;;;;;;;23.99;63.29;100420.31;5065101;28;20033;-62
2021/09/10 03:07:57;;;;;;;5.00;4.13;;;;;;;23.99;63.31;100420.31;5036733;28;20594;-63
2021/09/10 03:10:23;;;;;;;5.10;3.97;;;;;;;24.00;63.38;100421.94;5049710;28;20039;-62
2021/09/10 03:12:50;;;;;;;4.97;3.70;;;;;;;23.99;63.47;100423.00;5067959;28;20033;-62
2021/09/10 03:15:15;;;;;;;5.35;4.10;;;;;;;23.98;63.24;100424.84;5064182;28;20048;-62
2021/09/10 03:17:41;;;;;;;4.78;4.10;;;;;;;23.99;63.22;100441.75;5055143;28;20032;-63
2021/09/10 03:20:08;;;;;;;5.30;4.15;;;;;;;24.01;63.37;100434.28;5067702;28;20029;-62
2021/09/10 03:22:34;;;;;;;4.55;4.03;;;;;;;23.97;63.38;100428.56;5066890;28;20052;-62
2021/09/10 03:25:00;;;;;;;5.03;4.30;;;;;;;23.98;63.37;100430.19;5067227;28;20150;-62
2021/09/10 03:27:27;;;;;;;5.07;3.97;;;;;;;23.98;63.23;100430.19;5052355;28;20036;-62
2021/09/10 03:29:53;;;;;;;5.35;4.00;;;;;;;23.99;63.23;100431.03;5067968;28;20048;-62
2021/09/10 03:32:18;;;;;;;5.10;4.20;;;;;;;23.99;63.22;100431.03;5071931;28;20033;-62
2021/09/10 03:34:44;;;;;;;6.32;4.60;;;;;;;23.99;63.21;100433.72;5065870;28;20557;-63
2021/09/10 03:37:11;;;;;;;5.28;3.83;;;;;;;23.98;63.37;100440.91;5067421;28;20037;-63
2021/09/10 03:39:37;;;;;;;5.00;3.90;;;;;;;23.98;63.44;100442.78;5053524;28;20115;-62
2021/09/10 03:42:02;;;;;;;5.57;4.00;;;;;;;23.99;63.46;100436.41;5068839;28;20585;-62
2021/09/10 03:44:28;;;;;;;5.68;4.47;;;;;;;23.98;63.45;100442.78;5069672;28;20059;-62
2021/09/10 03:46:53;;;;;;;4.78;3.83;;;;;;;23.98;63.73;100443.59;5065919;28;20032;-62
2021/09/10 03:49:19;;;;;;;5.00;4.07;;;;;;;23.98;63.43;100432.06;5054779;28;20041;-63
2021/09/10 03:51:44;;;;;;;5.20;4.10;;;;;;;23.98;63.39;100432.06;5068653;28;20036;-63
2021/09/10 03:54:10;;;;;;;5.03;4.15;;;;;;;23.98;63.74;100440.09;5071954;28;20480;-62
2021/09/10 03:56:35;;;;;;;5.25;4.10;;;;;;;23.98;63.49;100434.75;5069283;28;20038;-63
2021/09/10 03:59:01;;;;;;;4.85;4.00;;;;;;;23.97;63.56;100443.81;5060796;28;20041;-62
2021/09/10 04:01:26;;;;;;;4.97;4.07;;;;;;;23.97;63.29;100438.47;5066488;28;20101;-62
2021/09/10 04:03:52;;;;;;;5.03;4.30;;;;;;;23.97;63.47;100441.97;5068923;28;20040;-62
2021/09/10 04:06:17;;;;;;;4.72;4.07;;;;;;;23.97;63.28;100431.25;5070548;28;20048;-63
2021/09/10 04:08:43;;;;;;;5.13;4.25;;;;;;;23.98;63.28;100432.06;5066103;28;20475;-62
2021/09/10 04:11:08;;;;;;;5.22;4.00;;;;;;;23.98;63.37;100434.75;5047904;28;20037;-62
2021/09/10 04:13:33;;;;;;;5.53;4.43;;;;;;;23.96;63.46;100432.28;5065112;28;20044;-63
2021/09/10 04:15:59;;;;;;;5.68;4.32;;;;;;;23.97;63.46;100431.25;5070958;28;20507;-63
2021/09/10 04:18:24;;;;;;;5.63;4.60;;;;;;;23.97;63.51;100425.88;5069330;28;20162;-63
2021/09/10 04:20:50;;;;;;;4.88;3.83;;;;;;;23.97;63.55;100435.78;5061582;28;20036;-62
2021/09/10 04:23:15;;;;;;;5.70;4.32;;;;;;;23.98;63.40;100426.69;5070284;28;20493;-63
2021/09/10 04:25:41;;;;;;;5.00;4.40;;;;;;;23.97;63.48;100425.06;5068906;28;20074;-62
2021/09/10 04:28:07;;;;;;;5.05;4.00;;;;;;;23.97;63.63;100425.88;5064392;28;20511;-63
2021/09/10 04:30:33;;;;;;;5.38;4.38;;;;;;;23.97;63.48;100420.53;5060315;28;20454;-62
2021/09/10 04:32:59;;;;;;;6.15;4.20;;;;;;;23.97;63.36;100433.91;5070296;28;20116;-62
2021/09/10 04:35:25;;;;;;;5.47;4.40;;;;;;;23.97;63.43;100433.09;5072349;28;20040;-63
2021/09/10 04:37:50;;;;;;;5.03;4.18;;;;;;;23.97;63.42;100428.56;5068289;28;20032;-62
2021/09/10 04:40:18;;;;;;;5.63;4.63;;;;;;;23.97;63.40;100438.47;5072075;28;20039;-63
2021/09/10 04:42:43;;;;;;;4.80;3.90;;;;;;;23.97;63.38;100433.09;5068059;28;20539;-62
2021/09/10 04:45:09;;;;;;;5.25;4.20;;;;;;;23.97;63.43;100433.09;5048555;28;20044;-62
2021/09/10 04:47:35;;;;;;;4.63;3.80;;;;;;;23.97;63.37;100441.16;5050735;28;20194;-63
2021/09/10 04:50:00;;;;;;;5.65;4.00;;;;;;;23.97;63.31;100438.47;5068800;28;20510;-62
2021/09/10 04:52:25;;;;;;;4.95;4.00;;;;;;;23.96;63.44;100443.00;5069237;28;20041;-62
2021/09/10 04:54:51;;;;;;;5.10;4.30;;;;;;;23.95;63.52;100430.66;5069321;28;20024;-63
2021/09/10 04:57:16;;;;;;;4.75;4.10;;;;;;;23.97;63.28;100433.91;5067955;28;20079;-62
2021/09/10 04:59:42;;;;;;;4.82;3.83;;;;;;;23.97;63.40;100441.16;5050376;28;20116;-62
2021/09/10 05:02:08;;;;;;;5.70;4.40;;;;;;;23.97;63.37;100444.63;5070904;28;20027;-62
2021/09/10 05:04:33;;;;;;;5.05;3.95;;;;;;;23.96;63.30;100440.34;5077852;28;20519;-62
2021/09/10 05:06:59;;;;;;;5.50;4.47;;;;;;;23.96;63.60;100447.56;5066030;28;20056;-63
2021/09/10 05:09:24;;;;;;;5.70;4.40;;;;;;;23.96;63.49;100444.88;5067843;28;20037;-62
2021/09/10 05:11:50;;;;;;;5.40;4.18;;;;;;;23.96;63.53;100442.19;5069077;28;20105;-63
2021/09/10 05:14:15;;;;;;;5.55;4.60;;;;;;;23.96;63.61;100443.00;5068747;28;20081;-62
2021/09/10 05:16:41;;;;;;;5.07;4.22;;;;;;;23.96;63.45;100444.88;5061610;28;20056;-63
2021/09/10 05:19:09;;;;;;;6.32;4.70;;;;;;;23.97;63.38;100443.81;5067412;28;20380;-63
2021/09/10 05:21:35;;;;;;;4.75;3.83;;;;;;;23.95;63.63;100441.38;5067991;28;20119;-63
2021/09/10 05:24:00;;;;;;;5.22;4.32;;;;;;;23.94;63.46;100437.06;5068663;28;20854;-62
2021/09/10 05:26:25;;;;;;;5.10;4.22;;;;;;;23.95;63.53;100445.94;5064594;28;20037;-62
2021/09/10 05:28:51;;;;;;;5.18;4.00;;;;;;;23.95;63.21;100441.38;5047730;28;20035;-62
2021/09/10 05:31:16;;;;;;;4.75;3.80;;;;;;;23.96;63.47;100444.88;5067864;28;20043;-62
2021/09/10 05:33:42;;;;;;;5.15;4.18;;;;;;;23.95;63.54;100451.28;5060383;28;20048;-63
2021/09/10 05:36:08;;;;;;;5.70;4.13;;;;;;;23.95;63.30;100456.66;5068648;28;20383;-62
2021/09/10 05:38:34;;;;;;;9.52;4.18;;;;;;;23.95;63.32;100462.00;5069771;28;20039;-62
2021/09/10 05:41:00;;;;;;;6.10;4.05;;;;;;;23.94;63.54;100463.88;5080164;28;20055;-61
2021/09/10 05:43:25;;;;;;;5.32;3.70;;;;;;;23.95;63.65;100470.03;5084928;28;20070;-62
2021/09/10 05:45:51;;;;;;;5.30;4.22;;;;;;;23.95;63.86;100470.03;5064628;28;20028;-64
2021/09/10 05:48:19;;;;;;;7.05;4.20;;;;;;;23.95;63.52;100462.81;5075477;28;20530;-67
2021/09/10 05:50:49;;;;;;;5.88;4.05;;;;;;;23.95;63.89;100478.06;5081357;28;20496;-63
2021/09/10 05:53:16;;;;;;;4.70;3.47;;;;;;;23.96;64.10;100471.66;5065291;28;20059;-63
2021/09/10 05:55:43;;;;;;;5.03;3.90;;;;;;;23.96;63.89;100475.16;5083173;28;20036;-63
2021/09/10 05:58:09;;;;;;;4.88;4.22;;;;;;;23.96;64.04;100477.03;5071939;28;20035;-63
2021/09/10 06:00:36;;;;;;;4.82;3.85;;;;;;;23.96;63.81;100475.16;5076147;28;20037;-63
2021/09/10 06:03:03;;;;;;;5.15;4.30;;;;;;;23.96;64.05;100485.88;5066782;28;20045;-64
2021/09/10 06:05:28;;;;;;;5.82;4.30;;;;;;;23.97;63.93;100487.50;5067216;28;20056;-64
2021/09/10 06:07:54;;;;;;;5.82;3.72;;;;;;;23.95;64.01;100492.28;5040702;28;20547;-64
2021/09/10 06:10:19;;;;;;;5.00;3.90;;;;;;;23.96;63.75;100493.09;5065259;28;20049;-64
2021/09/10 06:12:45;;;;;;;5.90;4.38;;;;;;;23.96;63.88;100501.94;5068257;28;20396;-64
2021/09/10 06:15:13;;;;;;;5.20;4.38;;;;;;;23.96;63.99;100506.50;5067622;28;20029;-64
2021/09/10 06:17:40;;;;;;;5.40;4.18;;;;;;;23.96;64.07;100509.19;5060780;28;20036;-64
2021/09/10 06:20:06;;;;;;;4.80;3.63;;;;;;;23.96;64.01;100503.81;5069956;28;20024;-62
2021/09/10 06:22:32;;;;;;;5.00;3.88;;;;;;;23.96;64.07;100509.19;5068766;28;20769;-63
2021/09/10 06:24:58;;;;;;;5.60;4.10;;;;;;;23.95;64.05;100513.72;5066768;28;20035;-62
2021/09/10 06:27:24;;;;;;;5.85;4.07;;;;;;;23.95;64.05;100505.69;5059327;28;20028;-63
2021/09/10 06:29:49;;;;;;;5.18;3.92;;;;;;;23.95;64.02;100515.59;5067620;28;20102;-62
2021/09/10 06:32:15;;;;;;;4.95;3.83;;;;;;;23.96;64.01;100527.94;5068414;28;20058;-63
2021/09/10 06:34:41;;;;;;;4.90;4.00;;;;;;;23.95;64.09;100528.97;5068097;28;20349;-62
2021/09/10 06:37:06;;;;;;;4.45;3.80;;;;;;;23.94;64.13;100530.03;5065183;28;20032;-63
2021/09/10 06:39:32;;;;;;;5.25;4.40;;;;;;;23.95;64.02;100531.66;5065997;28;20658;-62
2021/09/10 06:41:58;;;;;;;5.80;4.32;;;;;;;23.94;64.28;100533.53;5067782;28;20032;-63
2021/09/10 06:44:24;;;;;;;5.45;4.13;;;;;;;23.94;63.96;100530.84;5066293;28;20051;-62
2021/09/10 06:46:50;;;;;;;5.72;4.50;;;;;;;23.94;63.92;100540.75;5060169;28;20056;-62
2021/09/10 06:49:15;;;;;;;5.60;4.03;;;;;;;23.93;63.88;100529.22;5061643;28;20040;-63
2021/09/10 06:51:41;;;;;;;6.72;3.97;;;;;;;23.95;64.03;100534.34;5064987;28;20424;-62
2021/09/10 06:54:07;;;;;;;6.15;3.85;;;;;;;23.95;64.18;100534.34;5059666;28;20033;-62
2021/09/10 06:56:32;;;;;;;6.03;3.50;;;;;;;23.94;64.30;100546.09;5069955;28;20046;-62
2021/09/10 06:58:58;;;;;;;4.88;3.60;;;;;;;23.93;64.29;100553.31;5084205;28;20030;-62
2021/09/10 07:01:24;;;;;;;5.45;3.83;;;;;;;23.94;64.39;100552.28;5066065;28;20047;-62
2021/09/10 07:03:50;;;;;;;4.22;3.50;;;;;;;23.94;64.47;100556.81;5071451;28;20029;-62
2021/09/10 07:06:16;;;;;;;5.20;3.40;;;;;;;23.94;64.29;100562.19;5049888;28;20056;-62
2021/09/10 07:08:41;;;;;;;5.72;3.67;;;;;;;23.93;64.56;100563.22;5064819;28;20053;-63
2021/09/10 07:11:07;;;;;;;4.75;3.58;;;;;;;23.94;64.62;100563.00;5070607;28;20037;-62
2021/09/10 07:13:33;;;;;;;5.72;3.50;;;;;;;23.94;64.68;100564.84;5070673;28;20075;-62
2021/09/10 07:15:59;;;;;;;7.07;3.85;;;;;;;23.94;64.80;100563.00;5060078;28;20052;-62
2021/09/10 07:18:24;;;;;;;4.63;3.55;;;;;;;23.94;64.80;100567.53;5064831;28;20040;-63
2021/09/10 07:20:50;;;;;;;5.95;3.83;;;;;;;23.94;64.59;100578.25;5068708;28;20032;-63
2021/09/10 07:23:16;;;;;;;7.03;3.67;;;;;;;23.94;64.53;100575.56;5064761;28;20060;-62
2021/09/10 07:25:42;;;;;;;7.43;4.18;;;;;;;23.93;64.50;100576.63;5064994;28;20040;-63
2021/09/10 07:28:07;;;;;;;6.80;4.40;;;;;;;23.92;64.27;100580.34;5071857;28;20458;-62
2021/09/10 07:30:33;;;;;;;9.18;3.80;;;;;;;23.92;64.41;100578.50;5073128;28;20064;-62
2021/09/10 07:33:00;;;;;;;6.93;3.72;;;;;;;23.91;64.46;100582.22;5072526;28;20071;-62
2021/09/10 07:35:26;;;;;;;5.88;4.03;;;;;;;23.90;64.33;100588.63;5069068;28;20036;-63
2021/09/10 07:37:52;;;;;;;5.82;3.67;;;;;;;23.88;64.20;100593.41;5063689;28;20849;-63
2021/09/10 07:40:18;;;;;;;9.13;3.35;;;;;;;23.85;64.31;100597.38;5067060;28;20032;-63
2021/09/10 07:42:45;;;;;;;5.15;3.50;;;;;;;23.84;64.39;100601.09;5077402;28;20132;-63
2021/09/10 07:45:12;;;;;;;5.13;3.30;;;;;;;23.83;64.15;100604.81;5056706;28;20182;-62
2021/09/10 07:47:38;;;;;;;7.45;3.30;;;;;;;23.83;64.00;100604.00;5069952;28;20036;-62
2021/09/10 07:50:04;;;;;;;6.72;2.90;;;;;;;23.82;64.25;100605.84;5069450;28;20376;-62
2021/09/10 07:52:30;;;;;;;7.45;2.90;;;;;;;23.83;64.40;100604.00;5061131;28;20032;-62
2021/09/10 07:54:55;;;;;;;5.88;2.95;;;;;;;23.84;64.61;100601.09;5058245;28;20179;-62
2021/09/10 07:57:21;;;;;;;5.82;2.70;;;;;;;23.83;64.73;100599.47;5084765;28;20088;-62
2021/09/10 07:59:46;;;;;;;7.97;3.40;;;;;;;23.84;64.45;100606.44;5068283;28;20486;-62
2021/09/10 08:02:12;;;;;;;8.45;3.95;;;;;;;23.83;64.03;100606.69;5059493;28;20045;-63
2021/09/10 08:04:37;;;;;;;8.65;3.92;;;;;;;23.82;64.14;100608.50;5066712;28;20032;-63
2021/09/10 08:07:03;;;;;;;9.77;4.10;;;;;;;23.82;64.10;100608.50;5068218;28;20468;-62
2021/09/10 08:09:29;;;;;;;9.50;3.78;;;;;;;23.81;64.06;100606.06;5069468;28;20047;-62
2021/09/10 08:11:54;;;;;;;8.05;4.03;;;;;;;23.79;64.07;100617.00;5051994;28;20176;-63
2021/09/10 08:14:20;;;;;;;9.00;4.32;;;;;;;23.76;64.16;100617.47;5069726;28;20033;-63
2021/09/10 08:16:45;;;;;;;12.45;4.72;;;;;;;23.74;64.20;100619.56;5049425;28;20037;-63
2021/09/10 08:19:11;;;;;;;11.20;5.30;;;;;;;23.73;63.89;100615.25;5071551;28;20032;-62
2021/09/10 08:21:36;;;;;;;6.97;4.57;;;;;;;23.71;64.00;100628.06;5079176;28;20029;-63
2021/09/10 08:24:02;;;;;;;8.05;5.13;;;;;;;23.71;63.77;100630.75;5070277;28;20040;-62
2021/09/10 08:26:28;;;;;;;11.80;6.07;;;;;;;23.70;63.98;100629.13;5070663;28;20032;-63
2021/09/10 08:28:53;;;;;;;10.85;5.88;;;;;;;23.70;63.83;100633.66;5070084;28;20090;-63
2021/09/10 08:31:18;;;;;;;10.15;5.88;;;;;;;23.68;64.20;100628.53;5070432;28;20036;-63
2021/09/10 08:33:44;;;;;;;11.50;4.90;;;;;;;23.67;63.80;100632.25;5070095;28;20099;-63
2021/09/10 08:36:09;;;;;;;10.15;5.80;;;;;;;23.65;63.74;100639.66;5069918;28;20115;-63
2021/09/10 08:38:35;;;;;;;8.38;5.65;;;;;;;23.64;63.70;100638.03;5069693;28;20219;-63
2021/09/10 08:41:03;;;;;;;7.63;4.97;;;;;;;23.63;63.91;100644.44;5068975;28;20033;-63
2021/09/10 08:43:29;;;;;;;7.03;5.47;;;;;;;23.64;63.46;100642.59;5069866;28;20113;-63
2021/09/10 08:45:59;;;;;;;10.30;5.38;;;;;;;23.63;63.73;100640.94;5068572;28;20056;-62
2021/09/10 08:48:27;;;;;;;11.45;5.32;;;;;;;23.63;63.83;100636.41;5069918;28;20116;-63
2021/09/10 08:50:54;;;;;;;8.60;5.50;;;;;;;23.65;63.76;100647.72;5069652;28;20055;-63
2021/09/10 08:53:19;;;;;;;9.10;5.90;;;;;;;23.65;63.63;100650.38;5069131;28;20032;-63
2021/09/10 08:55:45;;;;;;;7.30;5.53;;;;;;;23.64;63.66;100648.75;5071829;28;20059;-63
2021/09/10 08:58:10;;;;;;;8.82;5.43;;;;;;;23.64;63.90;100651.44;5070210;28;20463;-62
2021/09/10 09:00:37;;;;;;;9.70;6.30;;;;;;;23.64;63.74;100656.78;5069549;28;20024;-63
2021/09/10 09:03:05;;;;;;;7.72;5.78;;;;;;;23.64;63.88;100655.97;5069160;28;20522;-63
2021/09/10 09:05:32;;;;;;;9.65;6.75;;;;;;;23.63;63.67;100657.84;5069589;28;20032;-63
2021/09/10 09:08:08;;;;;;;9.82;6.45;;;;;;;23.62;63.62;100660.75;5069430;28;20048;-62
2021/09/10 09:11:04;;;;;;;8.80;6.15;;;;;;;23.58;63.77;100663.06;5069504;28;20119;-63
2021/09/10 09:13:32;;;;;;;10.38;6.20;;;;;;;23.60;63.57;100656.44;5069524;28;20040;-62
2021/09/10 09:16:30;;;;;;;9.93;6.60;;;;;;;23.57;63.92;100669.47;5069721;28;20096;-63
2021/09/10 09:19:03;;;;;;;7.75;6.22;;;;;;;23.57;63.55;100669.47;5069355;28;20024;-63
2021/09/10 09:21:36;;;;;;;8.70;6.10;;;;;;;23.56;63.83;100667.81;5071241;28;20368;-63
2021/09/10 09:24:13;;;;;;;8.63;6.22;;;;;;;23.54;63.88;100673.38;5071508;28;20056;-62
2021/09/10 09:26:39;;;;;;;8.57;6.05;;;;;;;23.58;63.65;100676.44;5069280;28;20460;-63
2021/09/10 09:29:11;;;;;;;8.13;6.30;;;;;;;23.56;63.69;100679.31;5067123;28;20479;-62
2021/09/10 09:31:38;;;;;;;8.65;6.18;;;;;;;23.58;63.60;100671.09;5069436;28;20047;-63
2021/09/10 09:34:05;;;;;;;7.40;6.18;;;;;;;23.58;63.95;100687.97;5068644;28;20391;-63
2021/09/10 09:36:32;;;;;;;6.82;5.70;;;;;;;23.58;63.74;100689.84;5068877;28;20597;-62
2021/09/10 09:38:58;;;;;;;7.20;5.57;;;;;;;23.58;63.75;100689.84;5068760;28;20058;-63
2021/09/10 09:41:25;;;;;;;7.35;5.50;;;;;;;23.56;63.67;100690.03;5068898;28;20079;-63
2021/09/10 09:44:08;;;;;;;5.95;4.97;;;;;;;23.55;64.09;100695.63;5070414;28;20050;-62
2021/09/10 09:46:34;;;;;;;8.10;5.15;;;;;;;23.53;63.84;100695.03;5070663;28;20544;-62
2021/09/10 09:49:12;;;;;;;8.93;5.28;;;;;;;23.50;63.91;100695.47;5075754;28;20115;-63
2021/09/10 09:51:57;;;;;;;6.57;4.25;;;;;;;23.45;63.94;100698.81;5068451;28;20059;-63
2021/09/10 09:54:23;;;;;;;5.05;4.40;;;;;;;23.48;64.14;100689.53;5068274;28;20075;-62
2021/09/10 09:56:50;;;;;;;6.38;4.70;;;;;;;23.47;63.96;100690.56;5068817;28;20644;-63
2021/09/10 09:59:16;;;;;;;5.00;3.60;;;;;;;23.45;63.96;100689.97;5067736;28;20387;-62
2021/09/10 10:01:43;;;;;;;5.95;3.90;;;;;;;23.46;64.21;100688.94;5068142;28;20020;-63
2021/09/10 10:04:09;;;;;;;5.80;3.60;;;;;;;23.47;63.78;100693.25;5067208;28;20174;-63
2021/09/10 10:06:36;;;;;;;4.88;3.70;;;;;;;23.47;63.84;100690.56;5066679;28;20559;-62
2021/09/10 10:09:14;;;;;;;4.78;3.35;;;;;;;23.46;64.05;100691.59;5070592;28;20035;-62
2021/09/10 10:11:44;;;;;;;5.03;3.80;;;;;;;23.46;63.85;100688.94;5075097;28;20034;-63
2021/09/10 10:14:14;;;;;;;4.85;3.80;;;;;;;23.45;63.81;100700.69;5068056;28;20495;-63
2021/09/10 10:16:42;;;;;;;5.53;3.70;;;;;;;23.47;63.98;100690.56;5068586;28;20284;-63
2021/09/10 10:19:19;;;;;;;7.03;3.65;;;;;;;23.44;63.92;100704.41;5068337;28;20705;-62
2021/09/10 10:22:02;;;;;;;6.35;3.60;;;;;;;23.44;64.16;100701.72;5067972;28;20052;-63
2021/09/10 10:24:49;;;;;;;4.20;3.35;;;;;;;23.44;64.02;100701.72;5054821;28;20475;-63
2021/09/10 10:27:24;;;;;;;5.63;3.85;;;;;;;23.47;64.00;100703.94;5067657;28;20453;-63
2021/09/10 10:29:49;;;;;;;4.97;3.72;;;;;;;23.49;64.01;100700.00;5069938;28;20416;-63
2021/09/10 10:32:33;;;;;;;5.70;3.88;;;;;;;23.46;64.14;100705.00;5072541;28;20079;-62
2021/09/10 10:35:17;;;;;;;5.75;4.30;;;;;;;23.46;64.14;100708.50;5069984;28;20036;-63
2021/09/10 10:38:02;;;;;;;5.90;4.03;;;;;;;23.48;63.94;100710.94;5069282;28;20047;-63
2021/09/10 10:40:37;;;;;;;5.75;4.15;;;;;;;23.48;63.74;100698.38;5075446;28;20039;-63
2021/09/10 10:43:30;;;;;;;5.43;4.30;;;;;;;23.50;63.80;100700.81;5068066;28;20088;-63
2021/09/10 10:46:09;;;;;;;8.30;5.22;;;;;;;23.47;63.67;100707.44;5063625;28;20095;-63
2021/09/10 10:48:40;;;;;;;6.80;5.63;;;;;;;23.47;63.87;100710.13;5068354;28;20039;-63
2021/09/10 10:51:21;;;;;;;10.00;6.05;;;;;;;23.44;63.65;100707.06;5067515;28;20135;-63
2021/09/10 10:53:46;;;;;;;8.35;5.50;;;;;;;23.47;63.93;100703.94;5067691;28;20036;-63
2021/09/10 10:56:21;;;;;;;9.55;5.57;;;;;;;23.45;63.93;100706.84;5067876;28;20032;-63
2021/09/10 10:58:46;;;;;;;7.95;5.47;;;;;;;23.48;63.55;100708.25;5067756;28;20082;-63
2021/09/10 11:01:12;;;;;;;8.10;5.47;;;;;;;23.47;63.59;100707.44;5066974;28;20048;-63
2021/09/10 11:03:47;;;;;;;7.03;5.38;;;;;;;23.47;63.96;100702.09;5069032;28;20024;-63
2021/09/10 11:06:29;;;;;;;8.48;5.32;;;;;;;23.44;63.75;100705.22;5071698;28;20032;-62
2021/09/10 11:08:55;;;;;;;8.18;6.18;;;;;;;23.46;63.50;100705.81;5071918;28;20119;-63
2021/09/10 11:11:21;;;;;;;7.55;5.63;;;;;;;23.46;63.54;100705.81;5071803;28;20040;-63
2021/09/10 11:13:46;;;;;;;8.23;5.70;;;;;;;23.45;63.58;100703.34;5071219;28;20086;-63
2021/09/10 11:16:26;;;;;;;7.45;5.95;;;;;;;23.42;63.71;100709.97;5071777;28;20036;-63
2021/09/10 11:18:51;;;;;;;7.35;6.18;;;;;;;23.45;63.41;100709.53;5071475;28;20051;-63
2021/09/10 11:21:17;;;;;;;7.22;5.75;;;;;;;23.45;63.27;100714.06;5071567;28;20040;-63
2021/09/10 11:23:43;;;;;;;6.75;5.70;;;;;;;23.44;63.42;100709.75;5053034;28;20040;-63